createdAt,value
2023-03-08T00:03:43.505Z,95150.25
2023-03-08T00:09:04.304Z,95147.81
2023-03-08T00:14:25.524Z,95153.06
2023-03-08T00:19:46.410Z,95160.13
2023-03-08T00:25:09.358Z,95175.28
2023-03-08T00:30:30.368Z,95182.19
2023-03-08T00:36:04.624Z,95191.94
2023-03-08T00:41:25.298Z,95195.22
2023-03-08T00:46:46.182Z,95201.06
2023-03-08T00:52:08.125Z,95208.25
2023-03-08T00:57:32.326Z,95218.41
2023-03-08T01:02:53.669Z,95205.97
2023-03-08T01:08:15.618Z,95219.78
2023-03-08T01:13:36.539Z,95214.34
2023-03-08T01:18:58.579Z,95215.31
2023-03-08T01:24:19.104Z,95202.03
2023-03-08T01:29:39.979Z,95206.78
2023-03-08T01:35:04.585Z,95210.56
2023-03-08T01:40:25.480Z,95220.47
2023-03-08T01:46:27.879Z,95206.78
2023-03-08T01:52:06.997Z,95212.88
2023-03-08T01:57:33.382Z,95217.22
2023-03-08T02:03:02.309Z,95208.66
2023-03-08T02:08:23.631Z,95218.97
2023-03-08T02:13:46.398Z,95205.03
2023-03-08T02:19:42.726Z,95203.94
2023-03-08T02:25:14.109Z,95215.47
2023-03-08T02:30:37.679Z,95215.22
2023-03-08T02:35:58.622Z,95222.25
2023-03-08T02:41:20.869Z,95230.13
2023-03-08T02:46:41.551Z,95213.72
2023-03-08T02:52:02.675Z,95215.91
2023-03-08T02:57:23.384Z,95216.44
2023-03-08T03:02:45.553Z,95216.31
2023-03-08T03:08:06.249Z,95221.31
2023-03-08T03:13:27.990Z,95221.88
2023-03-08T03:18:49.246Z,95215.22
2023-03-08T03:24:09.909Z,95218.50
2023-03-08T03:29:39.040Z,95217.53
2023-03-08T03:35:06.618Z,95221.63
2023-03-08T03:40:28.802Z,95232.47
2023-03-08T03:46:03.279Z,95243.44
2023-03-08T03:51:24.833Z,95238.19
2023-03-08T03:56:58.356Z,95244.53
2023-03-08T04:02:22.016Z,95245.75
2023-03-08T04:07:48.345Z,95247.63
2023-03-08T04:13:15.201Z,95251.44
2023-03-08T04:18:37.115Z,95257.16
2023-03-08T04:24:00.597Z,95248.31
2023-03-08T04:29:22.643Z,95236.38
2023-03-08T04:34:44.389Z,95234.63
2023-03-08T04:40:09.543Z,95251.16
2023-03-08T04:45:37.287Z,95249.28
2023-03-08T04:51:04.947Z,95233.69
2023-03-08T04:56:26.371Z,95239.25
2023-03-08T05:01:47.950Z,95257.28
2023-03-08T05:07:09.189Z,95259.84
2023-03-08T05:12:30.946Z,95254.41
2023-03-08T05:17:54.172Z,95235.72
2023-03-08T05:23:14.835Z,95249.16
2023-03-08T05:28:37.593Z,95256.34
2023-03-08T05:33:59.086Z,95251.59
2023-03-08T05:39:28.525Z,95264.31
2023-03-08T05:44:57.676Z,95267.84
2023-03-08T05:50:22.898Z,95274.63
2023-03-08T05:55:46.125Z,95282.94
2023-03-08T06:01:21.801Z,95286.75
2023-03-08T06:06:43.315Z,95287.81
2023-03-08T06:12:04.606Z,95294.03
2023-03-08T06:17:25.913Z,95288.75
2023-03-08T06:22:49.705Z,95279.41
2023-03-08T06:28:11.197Z,95285.69
2023-03-08T06:33:35.525Z,95295.34
2023-03-08T06:38:57.264Z,95282.56
2023-03-08T06:44:19.207Z,95270.22
2023-03-08T06:49:39.911Z,95270.22
2023-03-08T06:55:00.735Z,95277.16
2023-03-08T07:00:22.451Z,95301.44
2023-03-08T07:05:43.108Z,95299.41
2023-03-08T07:11:04.188Z,95291.25
2023-03-08T07:16:25.156Z,95295.19
2023-03-08T07:21:45.893Z,95283.66
2023-03-08T07:27:06.621Z,95303.63
2023-03-08T07:32:29.115Z,95305.53
2023-03-08T07:37:50.104Z,95302.41
2023-03-08T07:43:10.933Z,95302.66
2023-03-08T07:48:55.301Z,95303.06
2023-03-08T07:54:16.365Z,95304.84
2023-03-08T07:59:36.949Z,95304.84
2023-03-08T08:04:57.665Z,95307.84
2023-03-08T08:10:18.417Z,95315.69
2023-03-08T08:15:39.176Z,95316.91
2023-03-08T08:21:11.486Z,95304.84
2023-03-08T08:26:32.202Z,95313.53
2023-03-08T08:31:53.082Z,95307.44
2023-03-08T08:37:14.229Z,95292.22
2023-03-08T08:42:34.788Z,95288.78
2023-03-08T08:47:55.559Z,95287.50
2023-03-08T08:53:16.232Z,95280.81
2023-03-08T08:58:36.868Z,95281.06
2023-03-08T09:03:58.102Z,95284.63
2023-03-08T09:09:19.514Z,95277.28
2023-03-08T09:14:40.052Z,95275.91
2023-03-08T09:20:00.757Z,95264.56
2023-03-08T09:25:24.112Z,95260.38
2023-03-08T09:30:45.079Z,95255.19
2023-03-08T09:36:05.962Z,95232.03
2023-03-08T09:41:50.534Z,95235.13
2023-03-08T09:47:32.899Z,95234.31
2023-03-08T09:53:00.213Z,95222.28
2023-03-08T09:58:33.536Z,95205.56
2023-03-08T10:04:21.662Z,95202.56
2023-03-08T10:09:55.841Z,95192.31
2023-03-08T10:15:20.412Z,95191.56
2023-03-08T10:20:42.519Z,95190.88
2023-03-08T10:26:12.779Z,95175.84
2023-03-08T10:31:33.854Z,95171.03
2023-03-08T10:37:04.348Z,95156.44
2023-03-08T10:42:28.195Z,95139.59
2023-03-08T10:48:04.147Z,95137.97
2023-03-08T10:53:24.927Z,95128.56
2023-03-08T10:58:48.351Z,95118.38
2023-03-08T11:04:20.713Z,95107.09
2023-03-08T11:09:41.350Z,95098.53
2023-03-08T11:15:02.273Z,95097.44
2023-03-08T11:20:39.180Z,95088.19
2023-03-08T11:26:13.197Z,95084.81
2023-03-08T11:31:51.062Z,95062.09
2023-03-08T11:37:31.090Z,95065.03
2023-03-08T11:42:55.173Z,95042.09
2023-03-08T11:48:45.211Z,95051.63
2023-03-08T11:54:19.115Z,95023.78
2023-03-08T11:59:43.326Z,95009.25
2023-03-08T12:05:17.195Z,94992.97
2023-03-08T12:10:51.501Z,94983.81
2023-03-08T12:16:21.384Z,94969.84
2023-03-08T12:21:48.154Z,94965.28
2023-03-08T12:27:19.598Z,94942.19
2023-03-08T12:32:42.161Z,94944.84
2023-03-08T12:38:05.175Z,94956.00
2023-03-08T12:43:25.631Z,94948.38
2023-03-08T12:48:46.546Z,94936.66
2023-03-08T12:54:21.915Z,94936.50
2023-03-08T12:59:42.710Z,94937.31
2023-03-08T13:05:03.923Z,94927.22
2023-03-08T13:10:33.772Z,94922.03
2023-03-08T13:16:19.831Z,94917.88
2023-03-08T13:21:49.142Z,94919.94
2023-03-08T13:27:28.402Z,94920.22
2023-03-08T13:32:50.277Z,94890.38
2023-03-08T13:38:22.469Z,94884.72
2023-03-08T13:43:43.204Z,94892.06
2023-03-08T13:49:03.924Z,94873.22
2023-03-08T13:54:29.464Z,94854.50
2023-03-08T13:59:56.464Z,94834.25
2023-03-08T14:05:24.052Z,94826.63
2023-03-08T14:10:52.038Z,94833.50
2023-03-08T14:16:30.168Z,94836.59
2023-03-08T14:21:55.934Z,94831.81
2023-03-08T14:27:17.001Z,94813.47
2023-03-08T14:32:38.733Z,94798.38
2023-03-08T14:37:59.539Z,94796.03
2023-03-08T14:43:27.671Z,94794.97
2023-03-08T14:48:58.219Z,94813.13
2023-03-08T14:54:38.505Z,94795.00
2023-03-08T15:00:14.247Z,94775.28
2023-03-08T15:05:36.603Z,94782.91
2023-03-08T15:10:57.585Z,94789.53
2023-03-08T15:16:18.479Z,94778.31
2023-03-08T15:21:39.416Z,94764.78
2023-03-08T15:27:00.475Z,94753.25
2023-03-08T15:32:21.383Z,94754.66
2023-03-08T15:37:43.982Z,94751.66
2023-03-08T15:43:04.759Z,94749.34
2023-03-08T15:48:25.519Z,94755.78
2023-03-08T15:53:47.129Z,94745.44
2023-03-08T15:59:07.986Z,94748.78
2023-03-08T16:04:28.650Z,94749.88
2023-03-08T16:09:49.501Z,94738.41
2023-03-08T16:15:10.643Z,94738.41
2023-03-08T16:20:31.682Z,94741.16
2023-03-08T16:26:15.113Z,94733.50
2023-03-08T16:31:36.539Z,94722.22
2023-03-08T16:36:57.679Z,94717.25
2023-03-08T16:42:19.542Z,94718.53
2023-03-08T16:47:40.209Z,94714.16
2023-03-08T16:53:00.988Z,94712.81
2023-03-08T16:58:21.936Z,94713.53
2023-03-08T17:03:43.196Z,94710.81
2023-03-08T17:09:05.387Z,94686.75
2023-03-08T17:14:26.384Z,94692.22
2023-03-08T17:19:47.019Z,94691.56
2023-03-08T17:25:08.304Z,94692.38
2023-03-08T17:30:29.608Z,94674.31
2023-03-08T17:35:56.528Z,94674.13
2023-03-08T17:41:17.325Z,94668.69
2023-03-08T17:46:38.194Z,94664.31
2023-03-08T17:51:59.052Z,94668.03
2023-03-08T17:57:23.568Z,94670.19
2023-03-08T18:02:44.356Z,94667.78
2023-03-08T18:08:05.255Z,94661.00
2023-03-08T18:13:26.290Z,94660.22
2023-03-08T18:18:49.717Z,94659.25
2023-03-08T18:24:14.025Z,94669.75
2023-03-08T18:29:35.579Z,94667.00
2023-03-08T18:34:56.512Z,94673.03
2023-03-08T18:40:17.373Z,94672.88
2023-03-08T18:45:38.283Z,94670.59
2023-03-08T18:51:02.071Z,94662.66
2023-03-08T18:56:24.542Z,94665.84
2023-03-08T19:01:45.575Z,94667.97
2023-03-08T19:07:06.191Z,94671.19
2023-03-08T19:12:27.909Z,94674.78
2023-03-08T19:17:48.508Z,94673.34
2023-03-08T19:23:10.247Z,94676.91
2023-03-08T19:28:31.012Z,94668.81
2023-03-08T19:33:52.199Z,94663.31
2023-03-08T19:39:17.071Z,94669.63
2023-03-08T19:44:38.892Z,94672.88
2023-03-08T19:49:59.519Z,94669.19
2023-03-08T19:55:20.698Z,94668.88
2023-03-08T20:00:44.134Z,94672.59
2023-03-08T20:06:05.833Z,94665.31
2023-03-08T20:11:27.294Z,94670.63
2023-03-08T20:16:48.364Z,94656.44
2023-03-08T20:22:09.216Z,94645.63
2023-03-08T20:27:31.438Z,94640.59
2023-03-08T20:32:52.407Z,94641.09
2023-03-08T20:38:13.521Z,94643.19
2023-03-08T20:43:34.289Z,94636.22
2023-03-08T20:48:55.063Z,94642.38
2023-03-08T20:54:15.759Z,94627.34
2023-03-08T20:59:36.967Z,94641.25
2023-03-08T21:04:58.183Z,94655.63
2023-03-08T21:10:19.266Z,94651.09
2023-03-08T21:15:40.350Z,94661.13
2023-03-08T21:21:01.247Z,94637.84
2023-03-08T21:26:25.756Z,94649.97
2023-03-08T21:31:52.566Z,94648.84
2023-03-08T21:37:13.763Z,94635.09
2023-03-08T21:42:34.456Z,94627.34
2023-03-08T21:47:57.602Z,94614.09
2023-03-08T21:53:18.761Z,94616.66
2023-03-08T21:58:39.866Z,94619.06
2023-03-08T22:04:01.964Z,94612.78
2023-03-08T22:09:26.731Z,94609.06
2023-03-08T22:14:47.517Z,94603.72
2023-03-08T22:20:10.887Z,94603.38
2023-03-08T22:25:31.873Z,94604.84
2023-03-08T22:30:52.704Z,94597.72
2023-03-08T22:36:15.798Z,94599.03
2023-03-08T22:41:37.322Z,94590.13
2023-03-08T22:46:58.052Z,94598.03
2023-03-08T22:52:19.407Z,94586.72
2023-03-08T22:57:40.374Z,94581.69
2023-03-08T23:03:01.090Z,94581.84
2023-03-08T23:08:24.441Z,94587.84
2023-03-08T23:13:45.126Z,94586.38
2023-03-08T23:19:05.923Z,94582.97
2023-03-08T23:24:26.868Z,94592.19
2023-03-08T23:29:47.465Z,94588.78
2023-03-08T23:35:11.067Z,94580.09
2023-03-08T23:40:32.093Z,94574.75
2023-03-08T23:45:52.710Z,94587.16
2023-03-08T23:51:16.943Z,94587.78
2023-03-08T23:56:39.625Z,94579.88
